createdAt,value
2018-10-11T00:00:45.953Z,19.46
2018-10-11T00:03:16.382Z,19.44
2018-10-11T00:05:46.138Z,19.42
2018-10-11T00:08:15.811Z,19.42
2018-10-11T00:10:45.497Z,19.41
2018-10-11T00:13:15.223Z,19.39
2018-10-11T00:15:45.066Z,19.41
2018-10-11T00:18:14.586Z,19.40
2018-10-11T00:20:44.557Z,19.38
2018-10-11T00:23:14.969Z,19.36
2018-10-11T00:25:44.810Z,19.37
2018-10-11T00:28:14.914Z,19.37
2018-10-11T00:30:44.718Z,19.36
2018-10-11T00:33:14.430Z,19.35
2018-10-11T00:35:43.999Z,19.35
2018-10-11T00:38:14.259Z,19.33
2018-10-11T00:40:44.111Z,19.34
2018-10-11T00:43:13.982Z,19.34
2018-10-11T00:45:45.495Z,19.33
2018-10-11T00:48:15.095Z,19.32
2018-10-11T00:50:45.036Z,19.30
2018-10-11T00:53:14.686Z,19.31
2018-10-11T00:55:44.386Z,19.31
2018-10-11T00:58:14.146Z,19.30
2018-10-11T01:00:43.805Z,19.29
2018-10-11T01:03:13.574Z,19.29
2018-10-11T01:05:43.670Z,19.28
2018-10-11T01:08:13.346Z,19.27
2018-10-11T01:10:42.839Z,19.28
2018-10-11T01:13:12.343Z,19.25
2018-10-11T01:15:41.951Z,19.25
2018-10-11T01:18:11.911Z,19.25
2018-10-11T01:20:41.490Z,19.23
2018-10-11T01:23:10.999Z,19.23
2018-10-11T01:25:40.716Z,19.22
2018-10-11T01:28:10.996Z,19.22
2018-10-11T01:30:44.565Z,19.22
2018-10-11T01:33:14.674Z,19.20
2018-10-11T01:35:44.689Z,19.20
2018-10-11T01:38:14.390Z,19.18
2018-10-11T01:40:44.096Z,19.19
2018-10-11T01:43:13.810Z,19.18
2018-10-11T01:45:43.627Z,19.18
2018-10-11T01:48:13.489Z,19.18
2018-10-11T01:50:43.861Z,19.17
2018-10-11T01:53:13.767Z,19.15
2018-10-11T01:55:43.442Z,19.15
2018-10-11T01:58:13.103Z,19.15
2018-10-11T02:00:42.928Z,19.15
2018-10-11T02:03:12.520Z,19.13
2018-10-11T02:05:42.334Z,19.12
2018-10-11T02:08:12.367Z,19.12
2018-10-11T02:10:42.075Z,19.12
2018-10-11T02:13:11.679Z,19.11
2018-10-11T02:15:41.312Z,19.11
2018-10-11T02:18:11.346Z,19.11
2018-10-11T02:20:41.199Z,19.11
2018-10-11T02:23:10.822Z,19.10
2018-10-11T02:25:40.926Z,19.09
2018-10-11T02:28:11.399Z,19.09
2018-10-11T02:30:41.030Z,19.08
2018-10-11T02:33:10.669Z,19.07
2018-10-11T02:35:40.342Z,19.06
2018-10-11T02:38:09.990Z,19.07
2018-10-11T02:40:40.062Z,19.05
2018-10-11T02:43:09.847Z,19.04
2018-10-11T02:45:39.587Z,19.04
2018-10-11T02:48:09.458Z,19.04
2018-10-11T02:50:39.114Z,19.04
2018-10-11T02:53:08.802Z,19.03
2018-10-11T02:55:38.319Z,19.03
2018-10-11T02:58:18.783Z,19.01
2018-10-11T03:00:48.445Z,19.01
2018-10-11T03:03:23.335Z,19.01
2018-10-11T03:05:53.891Z,19.01
2018-10-11T03:08:25.878Z,19.01
2018-10-11T03:10:55.570Z,19.01
2018-10-11T03:13:25.069Z,19.00
2018-10-11T03:15:55.323Z,18.99
2018-10-11T03:18:24.952Z,18.98
2018-10-11T03:20:54.367Z,18.98
2018-10-11T03:23:24.435Z,18.97
2018-10-11T03:25:54.592Z,18.96
2018-10-11T03:28:24.714Z,18.96
2018-10-11T03:30:54.339Z,18.96
2018-10-11T03:33:24.529Z,18.94
2018-10-11T03:35:54.239Z,18.95
2018-10-11T03:38:23.973Z,18.94
2018-10-11T03:40:53.579Z,18.94
2018-10-11T03:43:23.491Z,18.94
2018-10-11T03:45:53.681Z,18.93
2018-10-11T03:48:23.322Z,18.92
2018-10-11T03:50:53.074Z,18.91
2018-10-11T03:53:23.258Z,18.91
2018-10-11T03:55:52.940Z,18.90
2018-10-11T03:58:22.378Z,18.90
2018-10-11T04:00:52.295Z,18.90
2018-10-11T04:03:22.002Z,18.88
2018-10-11T04:05:51.590Z,18.87
2018-10-11T04:08:21.434Z,18.86
2018-10-11T04:10:51.581Z,18.86
2018-10-11T04:13:21.350Z,18.86
2018-10-11T04:15:51.010Z,18.85
2018-10-11T04:18:21.253Z,18.84
2018-10-11T04:20:50.824Z,18.82
2018-10-11T04:23:29.217Z,18.82
2018-10-11T04:26:00.173Z,18.81
2018-10-11T04:28:30.298Z,18.80
2018-10-11T04:31:00.498Z,18.79
2018-10-11T04:33:30.170Z,18.78
2018-10-11T04:36:00.141Z,18.81
2018-10-11T04:38:29.990Z,18.82
2018-10-11T04:40:59.910Z,18.81
2018-10-11T04:43:29.641Z,18.81
2018-10-11T04:45:59.259Z,18.82
2018-10-11T04:48:28.914Z,18.83
2018-10-11T04:50:58.753Z,18.84
2018-10-11T04:53:28.664Z,18.85
2018-10-11T04:55:58.532Z,18.86
2018-10-11T04:58:28.166Z,18.91
2018-10-11T05:00:58.334Z,18.95
2018-10-11T05:03:27.973Z,18.95
2018-10-11T05:05:57.791Z,18.97
2018-10-11T05:08:27.513Z,19.00
2018-10-11T05:10:57.154Z,19.02
2018-10-11T05:13:38.041Z,19.05
2018-10-11T05:16:07.844Z,19.06
2018-10-11T05:18:38.850Z,19.10
2018-10-11T05:21:09.379Z,19.12
2018-10-11T05:23:39.953Z,19.15
2018-10-11T05:26:10.563Z,19.16
2018-10-11T05:28:40.063Z,19.18
2018-10-11T05:31:09.716Z,19.19
2018-10-11T05:33:40.619Z,19.17
2018-10-11T05:36:10.198Z,19.17
2018-10-11T05:38:39.995Z,19.17
2018-10-11T05:41:09.728Z,19.18
2018-10-11T05:43:39.662Z,19.16
2018-10-11T05:46:15.233Z,19.17
2018-10-11T05:48:45.809Z,19.15
2018-10-11T05:51:15.673Z,19.17
2018-10-11T05:53:45.339Z,19.16
2018-10-11T05:56:15.852Z,19.14
2018-10-11T05:58:46.394Z,19.14
2018-10-11T06:01:16.825Z,19.12
2018-10-11T06:03:46.671Z,19.12
2018-10-11T06:06:16.883Z,19.10
2018-10-11T06:08:46.723Z,19.08
2018-10-11T06:11:17.026Z,19.07
2018-10-11T06:13:47.654Z,19.05
2018-10-11T06:16:17.923Z,19.05
2018-10-11T06:18:48.032Z,19.02
2018-10-11T06:21:18.241Z,18.99
2018-10-11T06:23:48.030Z,18.99
2018-10-11T06:26:19.087Z,18.98
2018-10-11T06:28:49.034Z,18.96
2018-10-11T06:31:18.598Z,18.95
2018-10-11T06:33:48.439Z,18.94
2018-10-11T06:36:18.365Z,18.94
2018-10-11T06:38:47.792Z,18.92
2018-10-11T06:41:17.602Z,18.92
2018-10-11T06:43:47.230Z,18.91
2018-10-11T06:46:17.050Z,18.91
2018-10-11T06:48:47.070Z,18.90
2018-10-11T06:51:16.699Z,18.89
2018-10-11T06:53:46.649Z,18.89
2018-10-11T06:56:17.697Z,18.88
2018-10-11T06:58:47.267Z,18.89
2018-10-11T07:01:17.270Z,18.89
2018-10-11T07:03:46.972Z,18.89
2018-10-11T07:06:16.684Z,18.88
2018-10-11T07:08:46.653Z,18.91
2018-10-11T07:11:16.674Z,18.90
2018-10-11T07:13:46.722Z,18.90
2018-10-11T07:16:16.506Z,18.90
2018-10-11T07:18:46.356Z,18.91
2018-10-11T07:21:19.529Z,18.93
2018-10-11T07:24:00.946Z,18.94
2018-10-11T07:26:30.797Z,18.93
2018-10-11T07:29:00.513Z,18.95
2018-10-11T07:31:30.676Z,18.97
2018-10-11T07:34:00.266Z,18.98
2018-10-11T07:36:30.274Z,18.97
2018-10-11T07:39:00.160Z,18.99
2018-10-11T07:41:29.936Z,19.00
2018-10-11T07:44:00.453Z,19.00
2018-10-11T07:46:30.927Z,19.00
2018-10-11T07:49:00.517Z,19.03
2018-10-11T07:54:09.971Z,19.05
2018-10-11T07:56:39.481Z,19.06
2018-10-11T07:59:10.389Z,19.09
2018-10-11T08:01:40.540Z,19.10
2018-10-11T08:04:10.347Z,19.11
2018-10-11T08:06:40.403Z,19.12
2018-10-11T08:09:10.704Z,19.15
2018-10-11T08:11:40.876Z,19.16
2018-10-11T08:14:10.285Z,19.18
2018-10-11T08:16:41.622Z,19.19
2018-10-11T08:19:11.675Z,19.23
2018-10-11T08:21:41.584Z,19.25
2018-10-11T08:24:11.816Z,19.26
2018-10-11T08:26:41.461Z,19.28
2018-10-11T08:29:11.466Z,19.31
2018-10-11T08:31:41.555Z,19.34
2018-10-11T08:34:11.784Z,19.34
2018-10-11T08:36:42.194Z,19.38
2018-10-11T08:39:13.122Z,19.40
2018-10-11T08:41:43.200Z,19.42
2018-10-11T08:44:14.224Z,19.44
2018-10-11T08:46:44.269Z,19.47
2018-10-11T08:49:14.000Z,19.47
2018-10-11T08:51:43.590Z,19.50
2018-10-11T08:54:18.976Z,19.51
2018-10-11T08:56:48.576Z,19.53
2018-10-11T08:59:18.310Z,19.56
2018-10-11T09:01:48.135Z,19.58
2018-10-11T09:04:18.447Z,19.60
2018-10-11T09:06:48.492Z,19.61
2018-10-11T09:09:18.484Z,19.62
2018-10-11T09:11:48.034Z,19.65
2018-10-11T09:14:17.574Z,19.66
2018-10-11T09:16:48.171Z,19.69
2018-10-11T09:19:17.904Z,19.69
2018-10-11T09:21:48.181Z,19.72
2018-10-11T09:24:18.167Z,19.72
2018-10-11T09:26:47.778Z,19.75
2018-10-11T09:29:17.555Z,19.77
2018-10-11T09:31:48.249Z,19.79
2018-10-11T09:34:18.066Z,19.82
2018-10-11T09:36:47.643Z,19.83
2018-10-11T09:39:17.694Z,19.84
2018-10-11T09:41:47.247Z,19.86
2018-10-11T09:44:16.951Z,19.88
2018-10-11T09:46:47.013Z,19.89
2018-10-11T09:49:17.023Z,19.92
2018-10-11T09:51:46.787Z,19.94
2018-10-11T09:54:16.769Z,19.95
2018-10-11T09:57:23.155Z,19.98
2018-10-11T09:59:53.182Z,20.00
2018-10-11T10:02:24.059Z,20.02
2018-10-11T10:04:56.248Z,20.04
2018-10-11T10:07:25.806Z,20.05
2018-10-11T10:09:55.849Z,20.05
2018-10-11T10:12:25.386Z,20.08
2018-10-11T10:14:55.066Z,20.09
2018-10-11T10:17:26.738Z,20.09
2018-10-11T10:19:56.738Z,20.12
2018-10-11T10:22:27.068Z,20.13
2018-10-11T10:24:56.832Z,20.15
2018-10-11T10:27:28.422Z,20.16
2018-10-11T10:29:58.201Z,20.18
2018-10-11T10:32:28.157Z,20.22
2018-10-11T10:34:57.890Z,20.23
2018-10-11T10:37:27.693Z,20.23
2018-10-11T10:39:57.729Z,20.25
2018-10-11T10:42:27.816Z,20.26
2018-10-11T10:44:57.732Z,20.29
2018-10-11T10:47:27.210Z,20.30
2018-10-11T10:49:57.205Z,20.31
2018-10-11T10:52:28.048Z,20.31
2018-10-11T10:54:59.458Z,20.33
2018-10-11T10:57:30.440Z,20.34
2018-10-11T11:00:00.170Z,20.36
2018-10-11T11:02:29.989Z,20.39
2018-10-11T11:04:59.666Z,20.41
2018-10-11T11:07:29.625Z,20.42
2018-10-11T11:09:59.615Z,20.42
2018-10-11T11:12:29.342Z,20.42
2018-10-11T11:14:59.192Z,20.44
2018-10-11T11:17:30.211Z,20.47
2018-10-11T11:20:00.512Z,20.48
2018-10-11T11:22:30.299Z,20.48
2018-10-11T11:25:00.691Z,20.50
2018-10-11T11:27:30.543Z,20.50
2018-10-11T11:30:00.479Z,20.52
2018-10-11T11:32:30.104Z,20.53
2018-10-11T11:35:00.185Z,20.54
2018-10-11T11:37:29.822Z,20.55
2018-10-11T11:40:00.374Z,20.57
2018-10-11T11:42:31.418Z,20.57
2018-10-11T11:45:01.259Z,20.58
2018-10-11T11:47:30.845Z,20.59
2018-10-11T11:50:00.430Z,20.61
2018-10-11T11:52:30.064Z,20.60
2018-10-11T11:54:59.773Z,20.61
2018-10-11T11:57:29.777Z,20.61
2018-10-11T11:59:59.938Z,20.63
2018-10-11T12:02:29.657Z,20.63
2018-10-11T12:04:59.288Z,20.63
2018-10-11T12:07:29.247Z,20.64
2018-10-11T12:09:58.938Z,20.66
2018-10-11T12:13:06.962Z,20.67
2018-10-11T12:15:37.449Z,20.67
2018-10-11T12:18:08.539Z,20.69
2018-10-11T12:20:40.617Z,20.70
2018-10-11T12:23:11.544Z,20.69
2018-10-11T12:25:42.138Z,20.73
2018-10-11T12:28:12.077Z,20.72
2018-10-11T12:30:42.985Z,20.73
2018-10-11T12:33:13.513Z,20.73
2018-10-11T12:35:43.132Z,20.73
2018-10-11T12:38:12.892Z,20.73
2018-10-11T12:40:42.734Z,20.75
2018-10-11T12:43:12.202Z,20.74
2018-10-11T12:45:43.071Z,20.75
2018-10-11T12:48:13.302Z,20.76
2018-10-11T12:50:43.367Z,20.76
2018-10-11T12:53:12.882Z,20.76
2018-10-11T12:55:42.379Z,20.77
2018-10-11T12:58:12.350Z,20.77
2018-10-11T13:00:42.090Z,20.77
2018-10-11T13:03:12.551Z,20.76
2018-10-11T13:05:42.172Z,20.76
2018-10-11T13:08:12.273Z,20.75
2018-10-11T13:10:41.964Z,20.75
2018-10-11T13:13:14.809Z,20.77
2018-10-11T13:15:44.696Z,20.77
2018-10-11T13:18:14.533Z,20.78
2018-10-11T13:20:44.790Z,20.78
2018-10-11T13:23:17.928Z,20.79
2018-10-11T13:25:44.455Z,20.80
2018-10-11T13:28:14.220Z,20.80
2018-10-11T13:30:44.336Z,20.82
2018-10-11T13:33:14.034Z,20.82
2018-10-11T13:35:44.085Z,20.81
2018-10-11T13:38:14.226Z,20.82
2018-10-11T13:40:44.149Z,20.81
2018-10-11T13:43:14.105Z,20.80
2018-10-11T13:45:44.087Z,20.81
2018-10-11T13:48:14.726Z,20.80
2018-10-11T13:50:46.185Z,20.81
2018-10-11T13:53:19.457Z,20.81
2018-10-11T13:55:50.831Z,20.81
2018-10-11T13:58:16.919Z,20.81
2018-10-11T14:00:46.456Z,20.82
2018-10-11T14:03:16.364Z,20.82
2018-10-11T14:05:50.673Z,20.82
2018-10-11T14:08:41.484Z,20.83
2018-10-11T14:11:14.099Z,20.84
2018-10-11T14:13:45.013Z,20.82
2018-10-11T14:16:14.806Z,20.81
2018-10-11T14:18:44.816Z,20.82
2018-10-11T14:21:15.174Z,20.81
2018-10-11T14:23:45.002Z,20.81
2018-10-11T14:26:14.445Z,20.79
2018-10-11T14:28:45.164Z,20.79
2018-10-11T14:31:15.958Z,20.75
2018-10-11T14:33:45.354Z,20.74
2018-10-11T14:36:15.281Z,20.70
2018-10-11T14:38:45.615Z,20.68
2018-10-11T14:41:15.393Z,20.66
2018-10-11T14:43:45.762Z,20.65
2018-10-11T14:46:15.916Z,20.64
2018-10-11T14:48:46.832Z,20.64
2018-10-11T14:51:16.874Z,20.63
2018-10-11T14:53:50.458Z,20.63
2018-10-11T14:56:18.006Z,20.63
2018-10-11T14:59:19.198Z,20.63
2018-10-11T15:01:49.710Z,20.63
2018-10-11T15:04:22.608Z,20.62
2018-10-11T15:06:54.724Z,20.62
2018-10-11T15:09:25.272Z,20.63
2018-10-11T15:11:55.418Z,20.62
2018-10-11T15:14:25.421Z,20.62
2018-10-11T15:16:56.034Z,20.62
2018-10-11T15:19:25.901Z,20.62
2018-10-11T15:21:56.481Z,20.62
2018-10-11T15:24:30.545Z,20.62
2018-10-11T15:27:02.760Z,20.61
2018-10-11T15:29:33.261Z,20.59
2018-10-11T15:32:03.034Z,20.63
2018-10-11T15:34:32.912Z,20.63
2018-10-11T15:37:03.184Z,20.61
2018-10-11T15:39:33.309Z,20.60
2018-10-11T15:42:03.414Z,20.62
2018-10-11T15:44:33.235Z,20.64
2018-10-11T15:47:03.455Z,20.65
2018-10-11T15:49:33.272Z,20.64
2018-10-11T15:52:02.817Z,20.64
2018-10-11T15:54:33.156Z,20.65
2018-10-11T15:57:03.690Z,20.66
2018-10-11T15:59:34.110Z,20.66
2018-10-11T16:02:04.184Z,20.65
2018-10-11T16:04:33.793Z,20.66
2018-10-11T16:07:04.125Z,20.65
2018-10-11T16:09:33.739Z,20.64
2018-10-11T16:12:03.216Z,20.64
2018-10-11T16:14:34.077Z,20.62
2018-10-11T16:17:04.190Z,20.62
2018-10-11T16:19:34.410Z,20.59
2018-10-11T16:22:03.840Z,20.56
2018-10-11T16:24:33.539Z,20.54
2018-10-11T16:27:03.424Z,20.51
2018-10-11T16:29:33.871Z,20.49
2018-10-11T16:32:03.244Z,20.50
2018-10-11T16:34:33.106Z,20.48
2018-10-11T16:37:02.788Z,20.48
2018-10-11T16:39:32.586Z,20.47
2018-10-11T16:42:02.490Z,20.47
2018-10-11T16:44:34.466Z,20.50
2018-10-11T16:47:07.490Z,20.51
2018-10-11T16:49:37.511Z,20.52
2018-10-11T16:52:08.087Z,20.53
2018-10-11T16:54:42.621Z,20.52
2018-10-11T16:57:14.439Z,20.53
2018-10-11T16:59:45.066Z,20.54
2018-10-11T17:02:15.157Z,20.54
2018-10-11T17:04:46.074Z,20.56
2018-10-11T17:07:16.966Z,20.57
2018-10-11T17:09:48.616Z,20.57
2018-10-11T17:12:19.798Z,20.57
2018-10-11T17:14:50.571Z,20.56
2018-10-11T17:17:20.415Z,20.58
2018-10-11T17:19:52.167Z,20.58
2018-10-11T17:22:21.856Z,20.58
2018-10-11T17:24:51.875Z,20.58
2018-10-11T17:27:21.654Z,20.57
2018-10-11T17:29:53.430Z,20.58
2018-10-11T17:32:23.709Z,20.58
2018-10-11T17:34:54.536Z,20.58
2018-10-11T17:37:24.445Z,20.59
2018-10-11T17:39:54.335Z,20.60
2018-10-11T17:42:24.076Z,20.59
2018-10-11T17:44:54.175Z,20.57
2018-10-11T17:47:26.182Z,20.57
2018-10-11T17:49:57.772Z,20.54
2018-10-11T17:52:29.877Z,20.54
2018-10-11T17:55:00.575Z,20.53
2018-10-11T17:57:31.167Z,20.52
2018-10-11T18:00:02.413Z,20.50
2018-10-11T18:02:32.345Z,20.50
2018-10-11T18:05:02.390Z,20.50
2018-10-11T18:07:35.062Z,20.49
2018-10-11T18:10:07.112Z,20.47
2018-10-11T18:12:37.178Z,20.47
2018-10-11T18:15:11.326Z,20.46
2018-10-11T18:17:41.208Z,20.47
2018-10-11T18:20:11.791Z,20.45
2018-10-11T18:22:41.970Z,20.45
2018-10-11T18:25:12.204Z,20.43
2018-10-11T18:27:42.217Z,20.43
2018-10-11T18:30:12.858Z,20.42
2018-10-11T18:32:42.939Z,20.42
2018-10-11T18:35:12.574Z,20.41
2018-10-11T18:37:43.268Z,20.41
2018-10-11T18:40:13.255Z,20.39
2018-10-11T18:42:43.309Z,20.39
2018-10-11T18:45:14.334Z,20.38
2018-10-11T18:47:44.622Z,20.38
2018-10-11T18:50:14.478Z,20.37
2018-10-11T18:52:44.746Z,20.36
2018-10-11T18:55:15.161Z,20.35
2018-10-11T18:57:46.431Z,20.35
2018-10-11T19:00:17.081Z,20.33
2018-10-11T19:02:47.394Z,20.32
2018-10-11T19:05:17.590Z,20.32
2018-10-11T19:07:47.866Z,20.31
2018-10-11T19:10:18.095Z,20.30
2018-10-11T19:12:48.087Z,20.29
2018-10-11T19:15:18.873Z,20.28
2018-10-11T19:17:48.583Z,20.27
2018-10-11T19:20:18.602Z,20.27
2018-10-11T19:22:49.696Z,20.25
2018-10-11T19:25:21.327Z,20.25
2018-10-11T19:27:50.965Z,20.23
2018-10-11T19:30:21.169Z,20.23
2018-10-11T19:32:52.674Z,20.23
2018-10-11T19:35:22.708Z,20.22
2018-10-11T19:37:52.771Z,20.20
2018-10-11T19:40:22.493Z,20.18
2018-10-11T19:42:52.542Z,20.18
2018-10-11T19:45:22.433Z,20.18
2018-10-11T19:47:52.303Z,20.16
2018-10-11T19:50:21.854Z,20.15
2018-10-11T19:52:51.865Z,20.15
2018-10-11T19:55:21.998Z,20.15
2018-10-11T19:57:51.971Z,20.14
2018-10-11T20:00:22.121Z,20.13
2018-10-11T20:02:52.082Z,20.13
2018-10-11T20:05:23.096Z,20.11
2018-10-11T20:07:53.268Z,20.11
2018-10-11T20:10:23.445Z,20.11
2018-10-11T20:12:55.862Z,20.09
2018-10-11T20:15:25.640Z,20.10
2018-10-11T20:17:55.346Z,20.09
2018-10-11T20:20:25.092Z,20.08
2018-10-11T20:22:55.195Z,20.08
2018-10-11T20:25:24.859Z,20.07
2018-10-11T20:27:55.118Z,20.06
2018-10-11T20:30:25.268Z,20.06
2018-10-11T20:32:55.118Z,20.05
2018-10-11T20:35:24.631Z,20.04
2018-10-11T20:37:56.346Z,20.04
2018-10-11T20:40:26.450Z,20.03
2018-10-11T20:42:56.582Z,20.02
2018-10-11T20:45:26.255Z,20.02
2018-10-11T20:47:56.859Z,20.01
2018-10-11T20:50:28.282Z,19.99
2018-10-11T20:52:58.193Z,20.02
2018-10-11T20:55:28.513Z,19.99
2018-10-11T20:57:58.535Z,19.97
2018-10-11T21:00:32.639Z,19.97
2018-10-11T21:03:02.514Z,19.99
2018-10-11T21:05:32.191Z,20.01
2018-10-11T21:08:02.646Z,20.03
2018-10-11T21:10:33.082Z,20.05
2018-10-11T21:13:03.350Z,20.06
2018-10-11T21:15:32.744Z,20.03
2018-10-11T21:18:02.310Z,20.04
2018-10-11T21:20:32.261Z,20.04
2018-10-11T21:23:02.190Z,20.03
2018-10-11T21:25:32.052Z,20.03
2018-10-11T21:28:03.366Z,20.05
2018-10-11T21:30:33.635Z,20.05
2018-10-11T21:33:03.916Z,20.05
2018-10-11T21:35:33.777Z,20.06
2018-10-11T21:38:03.743Z,20.05
2018-10-11T21:40:33.670Z,20.05
2018-10-11T21:43:03.680Z,20.05
2018-10-11T21:45:33.634Z,20.04
2018-10-11T21:48:03.432Z,20.06
2018-10-11T21:50:33.021Z,20.06
2018-10-11T21:53:03.004Z,20.06
2018-10-11T21:55:32.402Z,20.06
2018-10-11T21:58:01.743Z,20.06
2018-10-11T22:00:37.076Z,20.05
2018-10-11T22:03:07.291Z,20.05
2018-10-11T22:05:37.066Z,20.06
2018-10-11T22:08:06.501Z,20.04
2018-10-11T22:10:36.187Z,20.04
2018-10-11T22:13:06.165Z,20.05
2018-10-11T22:15:36.474Z,20.05
2018-10-11T22:18:06.671Z,20.05
2018-10-11T22:20:36.027Z,20.04
2018-10-11T22:23:05.835Z,20.05
2018-10-11T22:25:35.716Z,20.04
2018-10-11T22:28:05.522Z,20.04
2018-10-11T22:30:35.471Z,20.05
2018-10-11T22:33:05.078Z,20.04
2018-10-11T22:35:35.198Z,20.04
2018-10-11T22:38:04.822Z,20.04
2018-10-11T22:40:36.766Z,20.03
2018-10-11T22:43:06.772Z,20.03
2018-10-11T22:45:36.482Z,20.02
2018-10-11T22:48:06.304Z,20.02
2018-10-11T22:50:36.834Z,20.01
2018-10-11T22:53:07.916Z,20.01
2018-10-11T22:55:37.853Z,20.03
2018-10-11T22:58:07.658Z,20.01
2018-10-11T23:00:37.057Z,19.97
2018-10-11T23:03:06.458Z,19.95
2018-10-11T23:05:35.830Z,19.91
2018-10-11T23:08:05.234Z,19.90
2018-10-11T23:10:34.922Z,19.88
2018-10-11T23:13:04.302Z,19.85
2018-10-11T23:15:33.657Z,19.84
2018-10-11T23:18:03.474Z,19.83
2018-10-11T23:20:32.845Z,19.80
2018-10-11T23:23:02.382Z,19.78
2018-10-11T23:25:31.762Z,19.77
2018-10-11T23:28:02.100Z,19.76
2018-10-11T23:30:31.470Z,19.74
2018-10-11T23:33:00.915Z,19.73
2018-10-11T23:35:30.281Z,19.71
2018-10-11T23:37:59.663Z,19.70
2018-10-11T23:40:29.760Z,19.69
2018-10-11T23:42:59.805Z,19.68
2018-10-11T23:45:29.342Z,19.66
2018-10-11T23:47:59.259Z,19.65
2018-10-11T23:50:29.062Z,19.64
2018-10-11T23:52:59.090Z,19.63
2018-10-11T23:55:30.410Z,19.61
2018-10-11T23:58:00.395Z,19.60
